• Join FlightAware (Why Join?)
  • Login
  • US Flag 
12:23PM EDT


 

Airport Tracker/Info


-or-


 

Live Flight TrackerFlight Track Log ✈ N591CA ✈ 21-Mar-2014 ✈ KOSU - KCGF

Flight Track Log - Related Links

Times and Time Zones

All times are in EDT time to prevent confusion due to time zone crossing. See the N591CA flight status page for this flight to view local times or setup timezone preferences in your user account.

Time Position Orientation Groundspeed Altitude Reporting Facility
EDT Latitude Longitude Course Direction KTS MPH feet Rate Location/Type
02:53PM 40.0894 -83.0525 47° Northeast 84 97 1,800  Level Indianapolis Center
02:54PM 40.1031 -83.0358 43° Northeast 91 105 2,500 840 Climbing Indianapolis Center
02:54PM 40.1083 -83.0308 36° Northeast 92 106 2,700 840 Climbing Indianapolis Center
02:55PM 40.1222 -83.0111 47° Northeast 92 106 3,400 840 Climbing Indianapolis Center
02:55PM 40.1297 -83.0042 35° Northeast 106 122 3,700 840 Climbing Indianapolis Center
02:56PM 40.1444 -82.9850 45° Northeast 99 114 4,300 660 Climbing Indianapolis Center
02:56PM 40.1511 -82.9775 41° Northeast 110 127 4,400 540 Climbing Indianapolis Center
02:57PM 40.1753 -82.9458 45° Northeast 134 154 5,000 360 Climbing Indianapolis Center
02:58PM 40.1808 -82.8060 62° Northeast  Level FlightAware Approximate
02:58PM 40.1983 -82.9164 44° Northeast 136 157 5,100  Level Indianapolis Center
02:58PM 40.2047 -82.8986 65° Northeast 175 201 5,000 -120 Descending Indianapolis Center
02:59PM 40.2219 -82.8494 65° Northeast 161 185 5,000  Level Indianapolis Center
02:59PM 40.2250 -82.8417 63° Northeast 169 194 5,000  Level Indianapolis Center
03:00PM 40.2400 -82.7939 68° East 166 191 5,000  Level Indianapolis Center
03:00PM 40.2425 -82.7867 66° East 165 190 5,000  Level Indianapolis Center
03:01PM 40.2572 -82.7403 67° East 166 191 5,000  Level Indianapolis Center
03:01PM 40.2603 -82.7319 64° Northeast 166 191 5,000 240 Level Indianapolis Center
03:02PM 40.2744 -82.6856 68° East 165 190 5,300 540 Climbing Indianapolis Center
03:02PM 40.2778 -82.6800 52° Northeast 153 176 5,600 840 Climbing Indianapolis Center
03:03PM 40.2917 -82.6369 67° East 134 154 6,200 600 Climbing Indianapolis Center
03:03PM 40.2928 -82.6303 78° East 125 144 6,300 660 Climbing Indianapolis Center
03:04PM 40.3072 -82.5906 64° Northeast 133 153 6,900 360 Climbing Indianapolis Center
03:05PM 40.3244 -82.5406 66° East 144 166 7,000  Climbing Indianapolis Center
03:06PM 40.3431 -82.4772 69° East 172 198 7,000  Level Indianapolis Center
03:07PM 40.3633 -82.4197 65° Northeast 174 200 7,000  Level Indianapolis Center
03:08PM 40.3825 -82.3597 67° East 174 200 7,000  Level Indianapolis Center
03:09PM 40.4064 -82.2906 66° East 175 201 7,000  Level Indianapolis Center
03:10PM 40.4231 -82.2311 70° East 175 201 7,000  Level Indianapolis Center
03:11PM 40.4436 -82.1775 63° Northeast 169 194 7,000  Level Indianapolis Center
03:12PM 40.4608 -82.1178 69° East 169 194 7,000  Level Indianapolis Center
03:13PM 40.4975 -82.0819 37° Northeast 167 192 7,100  Climbing Indianapolis Center
03:14PM 40.5358 -82.0561 27° Northeast 158 182 7,100  Level Indianapolis Center
03:15PM 40.5747 -82.0339 23° Northeast 156 180 7,100 -300 Level Indianapolis Center
03:16PM 40.6228 -82.0108 20° North 155 178 6,500 -660 Descending Indianapolis Center
03:17PM 40.6664 -81.9878 22° Northeast 164 189 5,800 -720 Descending Indianapolis Center
03:19PM 40.7081 -81.9669 21° North 165 190 5,100 -600 Descending Cleveland Center
03:19PM 40.7147 -81.9647 14° North 159 183 5,100  Level Cleveland Center
03:19PM 40.7414 -81.9497 23° Northeast 153 176 5,100  Level Cleveland Center
03:20PM 40.7467 -81.9450 34° Northeast 154 177 5,100  Level Cleveland Center
03:20PM 40.7792 -81.9256 24° Northeast 141 162 5,100  Level Cleveland Center
03:21PM 40.7828 -81.9247 10° North 144 166 5,100  Level Cleveland Center
03:21PM 40.8167 -81.9067 22° Northeast 140 161 5,100  Level Cleveland Center
03:22PM 40.8203 -81.9050 19° North 143 165 5,100  Level Cleveland Center
03:22PM 40.8522 -81.8875 23° Northeast 141 162 5,100  Level Cleveland Center
03:23PM 40.8617 -81.8817 25° Northeast 142 163 5,100 -120 Level Cleveland Center
03:23PM 40.8900 -81.8658 23° Northeast 140 161 5,000 -120 Descending Cleveland Center
03:24PM 40.8983 -81.8617 21° North 141 162 5,000  Level Cleveland Center
03:24PM 40.9275 -81.8444 24° Northeast 141 162 5,000  Level Cleveland Center
03:25PM 40.9353 -81.8417 15° North 141 162 5,000 -540 Level Cleveland Center
03:26PM 40.9631 -81.8253 24° Northeast 144 166 4,500 -600 Descending Cleveland Center
03:26PM 40.9731 -81.8203 21° North 142 163 4,400 -840 Descending Cleveland Center
03:27PM 41.0094 -81.7994 23° Northeast 173 199 3,700 -780 Descending Cleveland Center
03:27PM 41.0147 -81.7956 29° Northeast 153 176 3,600 -720 Descending Cleveland Center
03:28PM 41.0492 -81.7781 21° North 170 196 3,000 -600 Descending Cleveland Center
03:28PM 41.0564 -81.7719 33° Northeast 157 181 3,000  Level Cleveland Center
03:29PM 41.0869 -81.7564 21° North 147 169 3,000  Level Cleveland Center
03:29PM 41.1008 -81.7469 27° Northeast 155 178 3,000  Level Cleveland Center
03:30PM 41.1247 -81.7347 21° North 145 167 3,000  Level Cleveland Center
03:30PM 41.1383 -81.7264 25° Northeast 150 173 3,000  Level Cleveland Center
03:31PM 41.1622 -81.7131 23° Northeast 150 173 3,000  Level Cleveland Center
03:31PM 41.1772 -81.7053 21° North 150 173 3,000  Level Cleveland Center
03:32PM 41.1997 -81.6939 21° North 146 168 3,000  Level Cleveland Center
03:32PM 41.2142 -81.6844 26° Northeast 149 171 3,000  Level Cleveland Center
03:32PM 41.2333 -81.6717 27° Northeast 144 166 3,000 60 Level Cleveland Center
03:33PM 41.2481 -81.6572 36° Northeast 148 170 3,100  Climbing Cleveland Center
03:34PM 41.2683 -81.6325 42° Northeast 143 165 3,000 -120 Descending Cleveland Center
03:34PM 41.2781 -81.6225 38° Northeast 146 168 3,000  Level Cleveland Center
03:35PM 41.2942 -81.6033 42° Northeast 143 165 3,000  Level Cleveland Center
03:35PM 41.3133 -81.5833 38° Northeast 146 168 3,000  Level Cleveland Center
03:36PM 41.3267 -81.5667 43° Northeast 142 163 3,000 60 Level Cleveland Center
03:36PM 41.3442 -81.5503 35° Northeast 146 168 3,100  Climbing Cleveland Center
03:37PM 41.3589 -81.5356 37° Northeast 145 167 3,000 -120 Descending Cleveland Center
03:37PM 41.3758 -81.5186 37° Northeast 145 167 3,000 60 Level Cleveland Center
03:38PM 41.3950 -81.5078 23° Northeast 142 163 3,100  Climbing Cleveland Center
03:38PM 41.4133 -81.5061 North 142 163 3,000 -120 Descending Cleveland Center
03:39PM 41.4333 -81.5028 North 149 171 3,000 -300 Level Cleveland Center
03:39PM 41.4553 -81.4994 North 144 166 2,700 -420 Descending Cleveland Center
03:40PM 41.4758 -81.4956 North 159 183 2,600 -420 Descending Cleveland Center
03:40PM 41.5058 -81.4900 North 152 175 2,300 -360 Descending Cleveland Center
03:41PM 41.5186 -81.4883 North 146 168 2,200 -300 Descending Cleveland Center
03:41PM 41.5436 -81.4833 North 146 168 2,000 -240 Descending Cleveland Center
03:42PM 41.5492 -81.4736 53° Northeast 126 145 2,000  Level Cleveland Center
03:42PM 41.5650 -81.4550 41° Northeast 120 138 2,000 -240 Level Cleveland Center
03:43PM 41.5714 -81.4603 328° Northwest 95 109 1,800 -780 Descending Cleveland Center
03:43PM 41.5678 -81.4850 259° West 104 120 1,200 -720 Descending Cleveland Center
03:44PM 41.5669 -81.4875 246° West 87 100 1,100 -480 Descending Cleveland Center
03:46PM 41.5651 -81.4864 270° West  Level Estimated
03:53PM 41.5651 -81.4864 56° Northeast  Level Estimated
03:54PM 41.5651 -81.4864 56° Northeast  Level Estimated